EZY879U EGAC-EGKK
Flight info
| Callsign | EZY879U |
|---|---|
| Flight time | N/A |
| Altitude | 25000 |
| Route | DUFFY L15 MAKUX/N0449F330 DCT SOSIM L15 KEPAD L151 DISIT |
| Aircraft | A319/M-SDE3FGHIRWY/LB1 |
Departure
| Time | 2026-04-22 18:58 |
|---|---|
| Airport | George Best Belfast City Airport (EGAC) |
Arrival
| Time | N/A |
|---|---|
| Airport | London Gatwick Airport (EGKK) |
| Time | Latitude | Longitude | Altitude | Speed | Heading |
|---|---|---|---|---|---|
| 2026-04-22 18:30 | 54.61568 | -5.87051 | 24 ft | 0 kts | 125° |
| 2026-04-22 18:46 | 54.61573 | -5.87064 | 23 ft | 4 kts | 125° |
| 2026-04-22 18:46 | 54.61588 | -5.87102 | 23 ft | 4 kts | 112° |
| 2026-04-22 18:47 | 54.61591 | -5.87143 | 23 ft | 4 kts | 62° |
| 2026-04-22 18:47 | 54.61583 | -5.87162 | 23 ft | 0 kts | 34° |
| 2026-04-22 18:48 | 54.61583 | -5.87161 | 25 ft | 0 kts | 35° |
| 2026-04-22 18:48 | 54.61587 | -5.87152 | 23 ft | 1 kts | 53° |
| 2026-04-22 18:49 | 54.61586 | -5.87136 | 23 ft | 1 kts | 102° |
| 2026-04-22 18:49 | 54.61576 | -5.87124 | 23 ft | 2 kts | 155° |
| 2026-04-22 18:49 | 54.61567 | -5.87128 | 23 ft | 0 kts | 195° |
| 2026-04-22 18:50 | 54.61565 | -5.87129 | 23 ft | 0 kts | 200° |
| 2026-04-22 18:53 | 54.61563 | -5.87130 | 23 ft | 1 kts | 202° |
| 2026-04-22 18:53 | 54.61554 | -5.87139 | 25 ft | 2 kts | 208° |
| 2026-04-22 18:54 | 54.61539 | -5.87158 | 23 ft | 3 kts | 219° |
| 2026-04-22 18:54 | 54.61522 | -5.87190 | 23 ft | 4 kts | 227° |
| 2026-04-22 18:54 | 54.61498 | -5.87233 | 25 ft | 5 kts | 225° |
| 2026-04-22 18:54 | 54.61467 | -5.87281 | 25 ft | 7 kts | 221° |
| 2026-04-22 18:55 | 54.61430 | -5.87338 | 25 ft | 8 kts | 222° |
| 2026-04-22 18:55 | 54.61390 | -5.87408 | 23 ft | 9 kts | 226° |
| 2026-04-22 18:55 | 54.61343 | -5.87482 | 23 ft | 10 kts | 220° |
| 2026-04-22 18:55 | 54.61288 | -5.87558 | 25 ft | 10 kts | 214° |
| 2026-04-22 18:56 | 54.61229 | -5.87624 | 25 ft | 11 kts | 211° |
| 2026-04-22 18:56 | 54.61164 | -5.87692 | 24 ft | 9 kts | 216° |
| 2026-04-22 18:56 | 54.61116 | -5.87767 | 23 ft | 10 kts | 214° |
| 2026-04-22 18:56 | 54.61083 | -5.87867 | 23 ft | 10 kts | 268° |
| 2026-04-22 18:57 | 54.61114 | -5.87978 | 22 ft | 9 kts | 305° |
| 2026-04-22 18:57 | 54.61172 | -5.88003 | 23 ft | 9 kts | 13° |
| 2026-04-22 18:57 | 54.61193 | -5.87983 | 23 ft | 0 kts | 32° |
| 2026-04-22 18:58 | 54.61195 | -5.87981 | 23 ft | 3 kts | 32° |
| 2026-04-22 18:58 | 54.61432 | -5.87703 | 20 ft | 86 kts | 34° |
| 2026-04-22 18:58 | 54.62147 | -5.86934 | 90 ft | 145 kts | 28° |
| 2026-04-22 18:58 | 54.63031 | -5.86080 | 642 ft | 149 kts | 20° |
| 2026-04-22 18:59 | 54.63955 | -5.85184 | 1264 ft | 155 kts | 23° |
| 2026-04-22 18:59 | 54.64894 | -5.84203 | 1929 ft | 159 kts | 27° |
| 2026-04-22 18:59 | 54.65720 | -5.82944 | 2650 ft | 157 kts | 51° |
| 2026-04-22 18:59 | 54.66185 | -5.81312 | 3201 ft | 158 kts | 75° |
| 2026-04-22 19:00 | 54.65949 | -5.79423 | 3637 ft | 179 kts | 127° |
| 2026-04-22 19:00 | 54.64772 | -5.78330 | 4094 ft | 215 kts | 169° |
| 2026-04-22 19:00 | 54.63229 | -5.78995 | 4791 ft | 250 kts | 207° |
| 2026-04-22 19:00 | 54.61938 | -5.81262 | 5460 ft | 280 kts | 232° |
| 2026-04-22 19:01 | 54.60957 | -5.84369 | 5845 ft | 316 kts | 236° |
| 2026-04-22 19:01 | 54.59868 | -5.88019 | 5526 ft | 367 kts | 237° |
| 2026-04-22 19:01 | 54.58554 | -5.91890 | 5052 ft | 374 kts | 232° |